M I D A S
Marine Information and Data Acquisition System
Tripno 2197 of the Zeeleeuw from 2011-10-13 07:27:03 to 2011-10-13 12:12:58
Back to CruiseResearch ActivitiesStationsMapUnderway DataData graphs

EquipmentUnitsComment
TimeDGPSUTC
LatitudeDGPSDM.mWGS84
LongitudeDGPSDM.mWGS84
TemperatureSBE03/SBE38deg celciusITS90
ConductivitySBE21S/mITS90
SalinitySBE21 Practical Salinity Units
ChlorophylAChelsea fluorimeterg/lCalibrated in Aceton
Missing or incorrect values are displayed as -999
Sea surface data collected by the RV Zeeleeuw from 2011-10-13 07:23:24 to 2011-10-13 12:28:02
Time Latitude Longitude Temperature Conductivity Salinity ChlorophylA
2011-10-13 07:24:32 51°13.657 2°55.911 19.8466 0.019681 0.108063 -3.020363
2011-10-13 07:25:32 51°13.682 2°55.809 19.8587 0.019681 0.108089 -3.020363
2011-10-13 07:26:32 51°13.697 2°55.74 19.8875 0.019681 0.108107 -3.020363
2011-10-13 07:27:31 51°13.703 2°55.751 19.7659 0.019681 0.108122 -3.020363
2011-10-13 07:28:32 51°13.694 2°55.736 19.8706 0.019681 0.108141 -3.020363
2011-10-13 07:29:31 51°13.744 2°55.707 19.7803 0.019681 0.108157 -3.020363
2011-10-13 07:30:31 51°13.824 2°55.646 19.7392 0.019681 0.108176 -3.020363
2011-10-13 07:31:29 51°13.92 2°55.593 19.7615 0.019681 0.108199 -3.020363
2011-10-13 07:32:28 51°14.033 2°55.529 19.8129 0.019681 0.108234 -3.020363
2011-10-13 07:33:30 51°14.149 2°55.427 19.7837 0.019681 0.10827 -3.020363
2011-10-13 07:34:32 51°14.261 2°55.314 19.7636 0.019681 0.108312 -3.020363
2011-10-13 07:35:32 51°14.38 2°55.191 19.7245 0.019681 0.108363 -3.020363
2011-10-13 07:36:31 51°14.509 2°55.053 19.7546 0.019578 0.107855 -3.020363
2011-10-13 07:37:28 51°14.651 2°54.87 19.6638 0.019578 0.107913 -3.020363
2011-10-13 07:38:29 51°14.818 2°54.674 19.6957 0.019578 0.107967 -3.020363
2011-10-13 07:39:28 51°14.988 2°54.512 19.6966 0.019578 0.108016 -3.020363
2011-10-13 07:40:28 51°15.16 2°54.358 19.665 0.019578 0.108068 -3.020363
2011-10-13 07:41:28 51°15.344 2°54.322 19.6849 0.019578 0.108117 -3.020363
2011-10-13 07:42:28 51°15.529 2°54.354 19.7073 0.019578 0.108184 -3.020363
2011-10-13 07:43:28 51°15.718 2°54.324 19.7115 0.019578 0.108249 -3.020363
2011-10-13 07:44:28 51°15.909 2°54.282 19.7071 0.019578 0.108311 -3.020363
2011-10-13 07:45:28 51°16.092 2°54.235 19.7289 0.019475 0.107814 -3.020363
2011-10-13 07:46:28 51°16.209 2°54.184 19.7318 0.019475 0.107879 -3.020363
2011-10-13 07:47:28 51°16.261 2°54.189 19.7506 0.019475 0.107925 -3.020363
2011-10-13 07:48:28 51°16.262 2°54.234 19.7816 0.019475 0.107856 -3.020363
2011-10-13 07:49:28 51°16.247 2°54.224 19.7613 0.019475 0.108002 -3.020363
2011-10-13 07:50:28 51°16.23 2°54.196 19.7841 0.019475 0.10806 -3.020363
2011-10-13 07:51:28 51°16.213 2°54.165 19.8051 0.019475 0.10809 -3.020363
2011-10-13 07:52:28 51°16.195 2°54.133 19.8237 0.019372 0.10756 -3.020363
2011-10-13 07:53:28 51°16.177 2°54.1 19.845 0.019372 0.107594 -3.020363
2011-10-13 07:54:28 51°16.159 2°54.067 19.8629 0.019372 0.107625 -3.020363
2011-10-13 07:55:28 51°16.141 2°54.035 19.8843 0.019372 0.107654 -3.020363
2011-10-13 07:56:28 51°16.123 2°54.003 19.9027 0.019372 0.107678 -3.020363
2011-10-13 07:57:28 51°16.104 2°53.971 19.9215 0.019372 0.107703 -3.020363
2011-10-13 07:58:28 51°16.073 2°53.941 19.9418 0.019372 0.107729 -3.020363
2011-10-13 07:59:28 51°15.964 2°53.889 19.9525 0.019372 0.107749 -3.020363
2011-10-13 08:00:28 51°15.795 2°53.739 19.9821 0.019372 0.107744 -3.020363
2011-10-13 08:01:28 51°15.613 2°53.541 20.0045 0.01927 0.107232 -3.020363
2011-10-13 08:02:28 51°15.432 2°53.337 20.0273 0.01927 0.107255 -3.020363
2011-10-13 08:03:28 51°15.262 2°53.11 20.0529 0.01927 0.107274 -3.020363
2011-10-13 08:04:28 51°15.09 2°52.887 20.0773 0.01927 0.10729 -3.020363
2011-10-13 08:05:28 51°14.918 2°52.666 20.0988 0.01927 0.107304 -3.020363
2011-10-13 08:06:28 51°14.736 2°52.472 20.1225 0.01927 0.107314 -3.020363
2011-10-13 08:07:28 51°14.594 2°52.211 20.1469 0.01927 0.107341 -3.020363
2011-10-13 08:08:28 51°14.427 2°52.003 20.1693 0.01927 0.107325 -3.020363
2011-10-13 08:09:28 51°14.373 2°51.811 20.1928 0.01927 0.107365 -3.020363
2011-10-13 08:10:28 51°14.364 2°51.709 20.2199 0.01927 0.107348 -3.020363
2011-10-13 08:11:28 51°14.369 2°51.585 20.2384 0.01927 0.107369 -3.020363
2011-10-13 08:12:28 51°14.39 2°51.462 20.264 0.01927 0.10739 -3.020363
2011-10-13 08:13:28 51°14.394 2°51.351 20.2842 0.01927 0.107409 -3.020363
2011-10-13 08:14:28 51°14.387 2°51.253 20.3119 0.01927 0.107431 -3.020363
2011-10-13 08:15:28 51°14.373 2°51.163 20.3286 0.01927 0.107454 -3.020363
2011-10-13 08:16:28 51°14.351 2°51.076 20.3487 0.019167 0.10691 -3.020363
2011-10-13 08:17:28 51°14.328 2°50.99 20.3766 0.019167 0.106933 -3.020363
2011-10-13 08:18:28 51°14.304 2°50.905 20.3967 0.019167 0.106947 -3.020363
2011-10-13 08:19:28 51°14.277 2°50.821 20.4212 0.019167 0.106963 -3.020363
2011-10-13 08:20:28 51°14.25 2°50.738 20.4415 0.019167 0.106977 -3.020363
2011-10-13 08:21:28 51°14.22 2°50.657 20.4798 0.019167 0.106989 -3.020363
2011-10-13 08:22:28 51°14.191 2°50.574 20.5017 0.019167 0.106993 -3.020363
2011-10-13 08:23:28 51°14.163 2°50.49 20.5273 0.019167 0.106984 -3.020363
2011-10-13 08:24:28 51°14.137 2°50.406 20.537 0.019167 0.106996 -3.020363
2011-10-13 08:25:28 51°14.112 2°50.32 20.5611 0.019167 0.106996 -3.020363
2011-10-13 08:26:28 51°14.086 2°50.234 20.5923 0.019167 0.106995 -3.020363
2011-10-13 08:27:28 51°14.059 2°50.148 20.614 0.019167 0.106993 -3.020363
2011-10-13 08:28:28 51°14.037 2°50.062 20.6275 0.019167 0.106991 -3.020363
2011-10-13 08:29:28 51°14.018 2°49.974 20.657 0.019167 0.106989 -3.020363
2011-10-13 08:30:28 51°13.999 2°49.887 20.6823 0.019167 0.106988 -3.020363
2011-10-13 08:31:28 51°13.979 2°49.798 20.7 0.019167 0.106986 -3.020363
2011-10-13 08:32:28 51°13.959 2°49.709 20.7331 0.019167 0.106984 -3.020363
2011-10-13 08:33:28 51°13.937 2°49.62 20.7505 0.019167 0.106984 -3.020363
2011-10-13 08:34:28 51°13.912 2°49.531 20.7695 0.019167 0.106982 -3.020363
2011-10-13 08:35:28 51°13.891 2°49.443 20.7994 0.019064 0.106416 -3.020363
2011-10-13 08:36:28 51°13.871 2°49.353 16.1704 2.55929 18.047184 -3.020363
2011-10-13 08:37:28 51°13.85 2°49.265 16.151 4.343525 34.188131 -3.020363
2011-10-13 08:38:28 51°13.831 2°49.176 16.1552 4.324963 34.093644 -3.020363
2011-10-13 08:39:28 51°13.81 2°49.089 16.1586 4.319882 34.058601 -3.020363
2011-10-13 08:40:28 51°13.788 2°49 16.1616 4.319778 34.060475 -3.020363
2011-10-13 08:41:28 51°13.765 2°48.912 16.1633 4.315527 34.025074 -3.020363
2011-10-13 08:42:28 51°13.75 2°48.822 16.1703 4.315112 34.02072 -3.020363
2011-10-13 08:43:28 51°13.745 2°48.737 16.1746 4.315423 34.020678 -3.020363
2011-10-13 08:44:28 51°13.748 2°48.655 16.1759 4.31169 33.98568 -3.020363
2011-10-13 08:45:28 51°13.756 2°48.58 16.1765 4.311482 33.985242 -3.020363
2011-10-13 08:46:28 51°13.796 2°48.502 16.1711 4.310756 33.978148 -3.020363
2011-10-13 08:47:28 51°13.826 2°48.456 16.1611 4.30132 33.901228 -3.020363
2011-10-13 08:48:28 51°13.841 2°48.423 16.1584 4.300594 33.901771 -3.020363
2011-10-13 08:49:28 51°13.857 2°48.386 16.1536 4.293336 33.839875 -3.020363
2011-10-13 08:50:28 51°13.884 2°48.263 16.1462 4.295721 33.866442 -3.020363
2011-10-13 08:51:28 51°13.803 2°48.066 16.1504 4.288462 33.808697 -3.020363
2011-10-13 08:52:28 51°13.671 2°47.814 16.1792 4.286284 33.781894 -3.020363
2011-10-13 08:53:28 51°13.546 2°47.52 16.2049 4.269486 33.610534 -3.020363
2011-10-13 08:54:28 51°13.428 2°47.216 16.2181 4.265234 33.552539 -3.020363
2011-10-13 08:55:28 51°13.314 2°46.908 16.2365 4.256628 33.463889 -3.020363
2011-10-13 08:56:28 51°13.177 2°46.623 16.2473 4.246155 33.360996 -3.020363
2011-10-13 08:57:28 51°13.05 2°46.328 16.2607 4.191413 32.870179 -3.020363
2011-10-13 08:58:28 51°12.912 2°46.048 16.2695 4.152225 32.519309 -3.020363
2011-10-13 08:59:28 51°12.806 2°45.737 16.2764 4.151811 32.506401 -3.020363
2011-10-13 09:00:28 51°12.701 2°45.428 16.2831 4.150152 32.48727 -3.020363
2011-10-13 09:01:28 51°12.604 2°45.116 16.2892 4.146731 32.451429 -3.020363
2011-10-13 09:02:28 51°12.501 2°44.807 16.2924 4.14445 32.427545 -3.020363
2011-10-13 09:03:28 51°12.404 2°44.495 16.2953 4.142584 32.407949 -3.020363
2011-10-13 09:04:28 51°12.317 2°44.175 16.2978 4.142791 32.407778 -3.020363
2011-10-13 09:05:28 51°12.237 2°43.849 16.2961 4.141858 32.398973 -3.020363
2011-10-13 09:06:28 51°12.158 2°43.521 16.2955 4.089097 31.939505 -3.020363
2011-10-13 09:07:28 51°12.071 2°43.198 16.297 4.086195 31.914873 -3.020363
2011-10-13 09:08:28 51°11.945 2°42.908 16.2987 4.086713 31.918088 -3.020363
2011-10-13 09:09:28 51°11.794 2°42.652 16.3073 4.08692 31.917293 -3.020363
2011-10-13 09:10:28 51°11.655 2°42.378 16.3149 4.072098 31.782405 -3.020363
2011-10-13 09:11:28 51°11.511 2°42.111 16.3235 4.021831 31.338976 -3.020363
2011-10-13 09:12:28 51°11.372 2°41.838 16.3297 4.020484 31.320903 -3.020363
2011-10-13 09:13:28 51°11.241 2°41.552 16.3364 4.023386 31.340996 -3.020363
2011-10-13 09:14:28 51°11.1 2°41.281 16.3404 4.01696 31.280767 -3.020363
2011-10-13 09:15:28 51°10.955 2°41.015 16.3416 4.351613 34.20143 -3.020363
2011-10-13 09:16:28 51°10.798 2°40.764 16.3457 4.351406 34.197517 -3.020363
2011-10-13 09:17:28 51°10.646 2°40.506 16.3521 4.350887 34.188083 -3.020363
2011-10-13 09:18:28 51°10.499 2°40.238 16.3681 4.349954 34.17431 -3.020363
2011-10-13 09:19:28 51°10.344 2°39.979 16.3875 4.349953 34.159703 -3.020363
2011-10-13 09:20:28 51°10.194 2°39.714 16.3721 4.351716 34.162677 -3.020363
2011-10-13 09:21:28 51°10.047 2°39.442 16.3427 4.351302 34.175025 -3.020363
2011-10-13 09:22:28 51°9.918 2°39.153 16.311 4.348917 34.177027 -3.020363
2011-10-13 09:23:28 51°9.797 2°38.856 16.3162 4.345288 34.168785 -3.020363
2011-10-13 09:24:28 51°9.68 2°38.555 16.3303 4.344665 34.157044 -3.020363
2011-10-13 09:25:28 51°9.576 2°38.243 16.3456 4.345287 34.149292 -3.020363
2011-10-13 09:26:28 51°9.46 2°37.944 16.3577 4.346117 34.146151 -3.020363
2011-10-13 09:27:28 51°9.367 2°37.632 16.3667 4.346635 34.140279 -3.020363
2011-10-13 09:28:28 51°9.372 2°37.286 16.355 4.347153 34.137885 -3.020363
2011-10-13 09:29:28 51°9.422 2°36.946 16.3647 4.346843 34.147663 -3.020363
2011-10-13 09:30:28 51°9.402 2°36.628 16.4153 4.349227 34.14985 -3.020363
2011-10-13 09:31:28 51°9.351 2°36.506 16.4209 4.352234 34.142227 -3.020363
2011-10-13 09:32:28 51°9.33 2°36.467 16.4237 4.352753 34.142614 -3.020363
2011-10-13 09:33:28 51°9.317 2°36.431 16.4397 4.353168 34.142785 -3.020363
2011-10-13 09:34:28 51°9.305 2°36.395 16.442 4.354412 34.143297 -3.020363
2011-10-13 09:35:28 51°9.294 2°36.358 16.4442 4.354101 34.138488 -3.020363
2011-10-13 09:36:28 51°9.282 2°36.32 16.4716 4.354308 34.139614 -3.020363
2011-10-13 09:37:28 51°9.271 2°36.282 16.4522 4.356693 34.13627 -3.020363
2011-10-13 09:38:28 51°9.248 2°36.242 16.4346 4.355864 34.138005 -3.020363
2011-10-13 09:39:28 51°9.152 2°36.291 16.4068 4.353582 34.141568 -3.020363
2011-10-13 09:40:28 51°9.067 2°36.501 16.3637 4.351612 34.15065 -3.020363
2011-10-13 09:41:28 51°8.989 2°36.6 16.3806 4.347361 34.136233 -3.020363
2011-10-13 09:42:28 51°8.957 2°36.594 16.3935 4.346738 34.120351 -3.020363
2011-10-13 09:43:32 51°8.954 2°36.576 16.3927 4.346427 34.109292 -3.020363
2011-10-13 09:44:32 51°8.949 2°36.558 16.3912 4.346531 34.110896 -3.020363
2011-10-13 09:45:32 51°8.942 2°36.539 16.3911 4.346323 34.109769 -3.020363
2011-10-13 09:46:30 51°8.935 2°36.518 16.39 4.346738 34.114799 -3.020363
2011-10-13 09:47:28 51°8.927 2°36.496 16.4024 4.34622 34.106084 -3.020363
2011-10-13 09:48:28 51°8.916 2°36.467 16.3979 4.347153 34.110115 -3.020363
2011-10-13 09:49:28 51°8.906 2°36.428 16.3995 4.346323 34.102833 -3.020363
2011-10-13 09:50:28 51°8.901 2°36.39 16.4008 4.346012 34.099409 -3.020363
2011-10-13 09:51:28 51°8.903 2°36.344 16.3976 4.34622 34.099843 -3.020363
2011-10-13 09:52:28 51°8.901 2°36.305 16.3928 4.345909 34.099885 -3.020363
2011-10-13 09:53:30 51°8.896 2°36.27 16.3908 4.345701 34.102226 -3.020363
2011-10-13 09:54:31 51°8.894 2°36.237 16.389 4.345598 34.103396 -3.020363
2011-10-13 09:55:31 51°8.9 2°36.2 16.3865 4.345183 34.100448 -3.020363
2011-10-13 09:56:29 51°8.956 2°36.12 16.3812 4.34539 34.103656 -3.020363
2011-10-13 09:57:28 51°9.102 2°35.952 16.388 4.345701 34.116103 -3.020363
2011-10-13 09:58:28 51°9.271 2°35.775 16.442 4.348916 34.120734 -3.020363
2011-10-13 09:59:28 51°9.436 2°35.583 16.4388 4.35296 34.12363 -3.020363
2011-10-13 10:00:28 51°9.602 2°35.398 16.4255 4.352442 34.126707 -3.020363
2011-10-13 10:01:28 51°9.772 2°35.225 16.4259 4.351405 34.123849 -3.020363
2011-10-13 10:02:28 51°9.936 2°35.04 16.4229 4.351612 34.126362 -3.020363
2011-10-13 10:03:28 51°10.102 2°34.872 16.4189 4.353168 34.141397 -3.020363
2011-10-13 10:04:28 51°10.263 2°34.705 16.4211 4.354308 34.154877 -3.020363
2011-10-13 10:05:28 51°10.309 2°34.574 16.4185 4.35296 34.143046 -3.020363
2011-10-13 10:06:28 51°10.275 2°34.497 16.4215 4.351716 34.134207 -3.020363
2011-10-13 10:07:28 51°10.268 2°34.487 16.4211 4.351923 34.132559 -3.020363
2011-10-13 10:08:32 51°10.264 2°34.48 16.4155 4.351923 34.133946 -3.020363
2011-10-13 10:09:32 51°10.257 2°34.471 16.4126 4.351405 34.133559 -3.020363
2011-10-13 10:10:31 51°10.25 2°34.459 16.4256 4.351197 34.13382 -3.020363
2011-10-13 10:11:29 51°10.242 2°34.446 16.431 4.352442 34.130173 -3.020363
2011-10-13 10:12:28 51°10.233 2°34.434 16.4483 4.352442 34.133641 -3.020363
2011-10-13 10:13:28 51°10.224 2°34.423 16.4324 4.35379 34.130213 -3.020363
2011-10-13 10:14:28 51°10.214 2°34.412 16.4345 4.352442 34.130867 -3.020363
2011-10-13 10:15:28 51°10.204 2°34.401 16.4464 4.352856 34.128959 -3.020363
2011-10-13 10:16:28 51°10.193 2°34.392 16.4548 4.35379 34.128134 -3.020363
2011-10-13 10:17:28 51°10.183 2°34.383 16.4629 4.354515 34.128956 -3.020363
2011-10-13 10:18:28 51°10.173 2°34.374 16.4571 4.35493 34.1319 -3.020363
2011-10-13 10:19:28 51°10.163 2°34.365 16.4469 4.354723 34.130774 -3.020363
2011-10-13 10:20:28 51°10.154 2°34.357 16.4604 4.353893 34.12835 -3.020363
2011-10-13 10:21:28 51°10.144 2°34.349 16.4429 4.35493 34.124972 -3.020363
2011-10-13 10:22:28 51°10.134 2°34.342 16.4509 4.353686 34.12861 -3.020363
2011-10-13 10:23:28 51°10.125 2°34.334 16.4571 4.353582 34.127008 -3.020363
2011-10-13 10:24:28 51°10.115 2°34.328 16.4498 4.354515 34.124799 -3.020363
2011-10-13 10:25:28 51°10.106 2°34.321 16.4469 4.352649 34.121595 -3.020363
2011-10-13 10:26:28 51°10.098 2°34.314 16.471 4.352856 34.116485 -3.020363
2011-10-13 10:27:29 51°10.088 2°34.309 16.4527 4.354308 34.118825 -3.020363
2011-10-13 10:28:28 51°10.078 2°34.305 16.4558 4.353478 34.118477 -3.020363
2011-10-13 10:29:28 51°10.06 2°34.305 16.4278 4.353064 34.118304 -3.020363
2011-10-13 10:30:28 51°10.026 2°34.342 16.4286 4.351197 34.121336 -3.020363
2011-10-13 10:31:28 51°9.997 2°34.454 16.4306 4.351716 34.123805 -3.020363
2011-10-13 10:32:28 51°9.955 2°34.631 16.4312 4.352234 34.126967 -3.020363
2011-10-13 10:33:28 51°9.932 2°34.853 16.4315 4.352338 34.12857 -3.020363
2011-10-13 10:34:28 51°9.914 2°35.085 16.4309 4.35213 34.126057 -3.020363
2011-10-13 10:35:28 51°9.893 2°35.318 16.4302 4.352442 34.128786 -3.020363
2011-10-13 10:36:28 51°9.868 2°35.55 16.4389 4.352027 34.126534 -3.020363
2011-10-13 10:37:28 51°9.844 2°35.782 16.4373 4.351508 34.114362 -3.020363
2011-10-13 10:38:28 51°9.835 2°36.016 16.4369 4.35016 34.104616 -3.020363
2011-10-13 10:39:28 51°9.867 2°36.242 16.4308 4.350056 34.1044 -3.020363
2011-10-13 10:40:28 51°9.902 2°36.47 16.4237 4.348916 34.099936 -3.020363
2011-10-13 10:41:28 51°9.935 2°36.701 16.4154 4.347567 34.093652 -3.020363
2011-10-13 10:42:28 51°9.964 2°36.933 16.4124 4.346427 34.088494 -3.020363
2011-10-13 10:43:28 51°9.987 2°37.168 16.4117 4.345597 34.083986 -3.020363
2011-10-13 10:44:28 51°10.011 2°37.403 16.403 4.345079 34.080822 -3.020363
2011-10-13 10:45:28 51°10.055 2°37.702 16.4095 4.344249 34.079778 -3.020363
2011-10-13 10:46:28 51°10.14 2°38.007 16.4107 4.34456 34.079044 -3.020363
2011-10-13 10:47:28 51°10.239 2°38.302 16.4074 4.344145 34.073326 -3.020363
2011-10-13 10:48:28 51°10.326 2°38.608 16.4107 4.343938 34.073584 -3.020363
2011-10-13 10:49:28 51°10.409 2°38.917 16.4162 4.344042 34.071724 -3.020363
2011-10-13 10:50:28 51°10.503 2°39.219 16.4158 4.344664 34.07372 -3.020363
2011-10-13 10:51:28 51°10.604 2°39.515 16.4081 4.330871 33.954131 -3.020363
2011-10-13 10:52:28 51°10.715 2°39.802 16.4 4.33056 33.954854 -3.020363
2011-10-13 10:53:28 51°10.818 2°40.097 16.3932 4.329938 33.9563 -3.020363
2011-10-13 10:54:28 51°10.923 2°40.392 16.3864 4.329108 33.955927 -3.020363
2011-10-13 10:55:28 51°11.036 2°40.68 16.3839 4.328486 33.955993 -3.020363
2011-10-13 10:56:28 51°11.123 2°40.992 16.3811 4.328383 33.953702 -3.020363
2011-10-13 10:57:28 51°11.219 2°41.296 16.3769 4.328279 33.959008 -3.020363
2011-10-13 10:58:28 51°11.315 2°41.601 16.3728 4.328798 33.966322 -3.020363
2011-10-13 10:59:28 51°11.4 2°41.912 16.3691 4.329731 33.977969 -3.020363
2011-10-13 11:00:28 51°11.496 2°42.218 16.3614 4.331494 33.996902 -3.020363
2011-10-13 11:01:28 51°11.559 2°42.546 16.3475 4.331494 34.00313 -3.020363
2011-10-13 11:02:28 51°11.61 2°42.879 16.337 4.330042 34.002841 -3.020363
2011-10-13 11:03:28 51°11.649 2°43.218 16.3239 4.329524 34.005212 -3.020363
2011-10-13 11:04:28 51°11.677 2°43.562 16.33 4.329524 34.015604 -3.020363
2011-10-13 11:05:28 51°11.711 2°43.906 16.344 4.329628 34.009586 -3.020363
2011-10-13 11:06:28 51°11.746 2°44.249 16.3479 4.330042 34.002841 -3.020363
2011-10-13 11:07:28 51°11.73 2°44.597 16.3462 4.329628 33.997813 -3.020363
2011-10-13 11:08:28 51°11.709 2°44.946 16.347 4.324339 33.952752 -3.020363
2011-10-13 11:09:28 51°11.734 2°45.293 16.3446 4.324131 33.950931 -3.020363
2011-10-13 11:10:28 51°11.797 2°45.631 16.3367 4.323613 33.94776 -3.020363
2011-10-13 11:11:28 51°11.852 2°45.974 16.3307 4.322783 33.946006 -3.020363
2011-10-13 11:12:28 51°11.89 2°46.303 16.3182 4.322161 33.946764 -3.020363
2011-10-13 11:13:28 51°11.919 2°46.541 16.3061 4.320606 33.944166 -3.020363
2011-10-13 11:14:28 51°11.956 2°46.751 16.2924 4.318843 33.939744 -3.020363
2011-10-13 11:15:28 51°11.997 2°46.941 16.2801 4.317288 33.936452 -3.020363
2011-10-13 11:16:28 51°12.031 2°47.127 16.2684 4.31594 33.934983 -3.020363
2011-10-13 11:17:28 51°12.063 2°47.313 16.2567 4.314385 33.930306 -3.020363
2011-10-13 11:18:28 51°12.096 2°47.497 16.2585 4.312829 33.926319 -3.020363
2011-10-13 11:19:28 51°12.133 2°47.677 16.2589 4.304844 33.854017 -3.020363
2011-10-13 11:20:28 51°12.171 2°47.856 16.2608 4.300904 33.817988 -3.020363
2011-10-13 11:21:28 51°12.204 2°48.037 16.2581 4.299348 33.804314 -3.020363
2011-10-13 11:22:28 51°12.238 2°48.218 16.2615 4.298104 33.793375 -3.020363
2011-10-13 11:23:28 51°12.291 2°48.384 16.2623 4.297275 33.785393 -3.020363
2011-10-13 11:24:28 51°12.368 2°48.53 16.2548 4.296756 33.782214 -3.020363
2011-10-13 11:25:28 51°12.448 2°48.676 16.2447 4.295927 33.780438 -3.020363
2011-10-13 11:26:28 51°12.525 2°48.829 16.2341 4.295616 33.78598 -3.020363
2011-10-13 11:27:28 51°12.584 2°49.002 16.229 4.294994 33.788099 -3.020363
2011-10-13 11:28:28 51°12.632 2°49.185 16.2273 4.294164 33.784943 -3.020363
2011-10-13 11:29:28 51°12.683 2°49.366 16.224 4.293646 33.781763 -3.020363
2011-10-13 11:30:28 51°12.736 2°49.547 16.2202 4.293335 33.782477 -3.020363
2011-10-13 11:31:28 51°12.795 2°49.725 16.2106 4.293231 33.783636 -3.020363
2011-10-13 11:32:28 51°12.854 2°49.902 16.2063 4.292609 33.787137 -3.020363
2011-10-13 11:33:28 51°12.877 2°50.013 16.2091 4.293231 33.792613 -3.020363
2011-10-13 11:34:31 51°12.891 2°50.047 16.1993 4.294372 33.80196 -3.020363
2011-10-13 11:35:32 51°12.904 2°50.074 16.1992 4.292609 33.795427 -3.020363
2011-10-13 11:36:29 51°12.916 2°50.1 16.2002 4.293128 33.800682 -3.020363
2011-10-13 11:37:28 51°12.927 2°50.127 16.2178 4.293439 33.800656 -3.020363
2011-10-13 11:38:28 51°12.938 2°50.156 16.2102 4.295512 33.802326 -3.020363
2011-10-13 11:39:28 51°12.949 2°50.183 16.2093 4.29489 33.807214 -3.020363
2011-10-13 11:40:28 51°12.959 2°50.212 16.2246 4.294787 33.804919 -3.020363
2011-10-13 11:41:28 51°12.97 2°50.241 16.2416 4.29489 33.798233 -3.020363
2011-10-13 11:42:28 51°12.927 2°50.251 16.2167 4.296445 33.798106 -3.020363
2011-10-13 11:43:28 51°12.777 2°50.201 16.2293 4.294475 33.795274 -3.020363
2011-10-13 11:44:28 51°12.619 2°50.132 16.2433 4.29209 33.762562 -3.020363
2011-10-13 11:45:28 51°12.489 2°50.032 16.2387 4.281617 33.662912 -3.020363
2011-10-13 11:46:28 51°12.396 2°49.956 16.2343 4.275499 33.611895 -3.020363
2011-10-13 11:47:28 51°12.315 2°49.869 16.2252 4.270937 33.576606 -3.020363
2011-10-13 11:48:28 51°12.236 2°49.807 16.2159 4.268656 33.564102 -3.020363
2011-10-13 11:49:28 51°12.19 2°49.8 16.2042 4.265234 33.54294 -3.020363
2011-10-13 11:50:28 51°12.174 2°49.83 16.1931 4.263472 33.537042 -3.020363
2011-10-13 11:51:28 51°12.185 2°49.859 16.1928 4.261709 33.530456 -3.020363
2011-10-13 11:52:28 51°12.198 2°49.884 16.2213 4.261605 33.528858 -3.020363
2011-10-13 11:53:28 51°12.211 2°49.91 16.2331 4.263679 33.51968 -3.020363
2011-10-13 11:54:31 51°12.246 2°49.94 16.2008 4.264819 33.529702 -3.020363
2011-10-13 11:55:31 51°12.278 2°49.977 16.1965 4.265027 33.55346 -3.020363
2011-10-13 11:56:28 51°12.297 2°50.006 16.2 4.262953 33.537283 -3.020363
2011-10-13 11:57:28 51°12.309 2°50.023 16.2006 4.263783 33.543891 -3.020363
2011-10-13 11:58:28 51°12.321 2°50.002 16.2016 4.26399 33.543657 -3.020363
2011-10-13 11:59:28 51°12.382 2°49.994 16.2127 4.266167 33.556629 -3.020363
2011-10-13 12:00:28 51°12.466 2°50.104 16.2208 4.269485 33.578252 -3.020363
2011-10-13 12:01:28 51°12.582 2°50.304 16.2259 4.272907 33.603527 -3.020363
2011-10-13 12:02:28 51°12.709 2°50.576 16.2342 4.273737 33.606013 -3.020363
2011-10-13 12:03:28 51°12.85 2°50.868 16.2328 4.274462 33.606215 -3.020363
2011-10-13 12:04:28 51°13.003 2°51.146 16.2282 4.274462 33.608274 -3.020363
2011-10-13 12:05:28 51°13.141 2°51.446 16.22 4.277055 33.634492 -3.020363
2011-10-13 12:06:28 51°13.268 2°51.758 16.2133 4.27664 33.637718 -3.020363
2011-10-13 12:07:28 51°13.404 2°52.058 16.2096 4.277262 33.646625 -3.020363
2011-10-13 12:08:28 51°13.549 2°52.347 16.204 4.279647 33.672414 -3.020363
2011-10-13 12:09:28 51°13.693 2°52.639 16.1988 4.281099 33.687937 -3.020363
2011-10-13 12:10:28 51°13.832 2°52.941 16.1914 4.281617 33.69732 -3.020363
2011-10-13 12:11:28 51°13.979 2°53.229 16.1866 4.281721 33.704433 -3.020363
2011-10-13 12:12:28 51°14.121 2°53.526 16.164 4.283069 33.721123 -3.020363
2011-10-13 12:13:28 51°14.268 2°53.815 16.156 4.287321 33.775816 -3.020363
2011-10-13 12:14:28 51°14.412 2°54.11 16.1486 4.288877 33.797125 -3.020363
2011-10-13 12:15:28 51°14.547 2°54.414 16.1386 4.289084 33.80518 -3.020363
2011-10-13 12:16:28 51°14.604 2°54.758 16.1238 4.290017 33.821022 -3.020363
2011-10-13 12:17:28 51°14.503 2°55.044 16.0938 4.284729 33.791023 -3.020363
2011-10-13 12:18:28 51°14.358 2°55.196 16.0342 4.234649 33.390949 -3.020363
2011-10-13 12:19:28 51°14.24 2°55.313 16.056 4.156893 32.735806 -3.020363
2011-10-13 12:20:28 51°14.125 2°55.418 16.0642 4.026498 31.567828 -3.020363
2011-10-13 12:21:28 51°14.002 2°55.503 16.0493 4.009087 31.422815 -3.020363
2011-10-13 12:22:28 51°13.889 2°55.583 16.06 3.991884 31.286714 -3.020363
2011-10-13 12:23:28 51°13.794 2°55.664 16.0775 3.983697 31.211392 -3.020363
2011-10-13 12:24:28 51°13.728 2°55.76 16.0851 3.964837 31.036648 -3.020363
2011-10-13 12:25:28 51°13.681 2°55.854 16.0965 3.946599 30.868831 -3.020363
2011-10-13 12:26:28 51°13.652 2°55.938 16.102 3.942661 30.824432 -3.020363
2011-10-13 12:27:28 51°13.639 2°56.007 16.1103 3.944837 30.842746 -3.020363